sensor_id;sensor_type;location;lat;lon;timestamp;pressure;altitude;pressure_sealevel;temperature
14023;BMP180;7086;48.116;11.580;2024-01-10T00:02:19;95905.00;;;-1.60
14023;BMP180;7086;48.116;11.580;2024-01-10T00:04:47;95820.00;;;-1.60
14023;BMP180;7086;48.116;11.580;2024-01-10T00:07:14;95884.00;;;-1.50
14023;BMP180;7086;48.116;11.580;2024-01-10T00:09:42;95825.00;;;-1.50
14023;BMP180;7086;48.116;11.580;2024-01-10T00:12:10;95873.00;;;-1.50
14023;BMP180;7086;48.116;11.580;2024-01-10T00:14:39;95779.00;;;-1.40
14023;BMP180;7086;48.116;11.580;2024-01-10T00:17:06;95736.00;;;-1.30
14023;BMP180;7086;48.116;11.580;2024-01-10T00:19:34;95849.00;;;-1.40
14023;BMP180;7086;48.116;11.580;2024-01-10T00:22:02;95811.00;;;-1.20
14023;BMP180;7086;48.116;11.580;2024-01-10T00:24:29;95817.00;;;-1.20
14023;BMP180;7086;48.116;11.580;2024-01-10T00:26:57;95843.00;;;-1.20
14023;BMP180;7086;48.116;11.580;2024-01-10T00:29:24;95870.00;;;-1.10
14023;BMP180;7086;48.116;11.580;2024-01-10T00:31:53;95807.00;;;-1.00
14023;BMP180;7086;48.116;11.580;2024-01-10T00:34:20;95894.00;;;-0.90
14023;BMP180;7086;48.116;11.580;2024-01-10T00:36:48;95875.00;;;-0.90
14023;BMP180;7086;48.116;11.580;2024-01-10T00:39:15;95864.00;;;-0.80
14023;BMP180;7086;48.116;11.580;2024-01-10T00:41:43;95868.00;;;-0.70
14023;BMP180;7086;48.116;11.580;2024-01-10T00:44:11;95765.00;;;-0.60
14023;BMP180;7086;48.116;11.580;2024-01-10T00:46:38;95847.00;;;-0.60
14023;BMP180;7086;48.116;11.580;2024-01-10T00:49:07;95873.00;;;-0.60
14023;BMP180;7086;48.116;11.580;2024-01-10T00:51:34;95810.00;;;-0.50
14023;BMP180;7086;48.116;11.580;2024-01-10T00:54:02;95849.00;;;-0.50
14023;BMP180;7086;48.116;11.580;2024-01-10T00:56:29;95784.00;;;-0.40
14023;BMP180;7086;48.116;11.580;2024-01-10T00:58:57;95747.00;;;-0.40
14023;BMP180;7086;48.116;11.580;2024-01-10T01:01:25;95758.00;;;-0.40
14023;BMP180;7086;48.116;11.580;2024-01-10T01:03:52;95870.00;;;-0.30
14023;BMP180;7086;48.116;11.580;2024-01-10T01:06:21;95880.00;;;-0.30
14023;BMP180;7086;48.116;11.580;2024-01-10T01:08:49;95831.00;;;-0.20
14023;BMP180;7086;48.116;11.580;2024-01-10T01:11:16;95847.00;;;-0.20
14023;BMP180;7086;48.116;11.580;2024-01-10T01:13:44;95872.00;;;-0.10
14023;BMP180;7086;48.116;11.580;2024-01-10T01:16:11;95844.00;;;-0.10
14023;BMP180;7086;48.116;11.580;2024-01-10T01:18:39;95839.00;;;-0.10
14023;BMP180;7086;48.116;11.580;2024-01-10T01:21:08;95881.00;;;-0.10
14023;BMP180;7086;48.116;11.580;2024-01-10T01:23:37;95890.00;;;0.00
14023;BMP180;7086;48.116;11.580;2024-01-10T01:26:05;95889.00;;;0.00
14023;BMP180;7086;48.116;11.580;2024-01-10T01:28:32;95858.00;;;0.00
14023;BMP180;7086;48.116;11.580;2024-01-10T01:31:00;95873.00;;;0.10
14023;BMP180;7086;48.116;11.580;2024-01-10T01:33:27;95895.00;;;0.10
14023;BMP180;7086;48.116;11.580;2024-01-10T01:35:55;95866.00;;;-0.10
14023;BMP180;7086;48.116;11.580;2024-01-10T01:38:22;95889.00;;;0.10
14023;BMP180;7086;48.116;11.580;2024-01-10T01:40:52;95889.00;;;0.10
14023;BMP180;7086;48.116;11.580;2024-01-10T01:43:21;95902.00;;;0.10
14023;BMP180;7086;48.116;11.580;2024-01-10T01:45:52;95902.00;;;0.10
14023;BMP180;7086;48.116;11.580;2024-01-10T01:48:21;95901.00;;;0.20
14023;BMP180;7086;48.116;11.580;2024-01-10T01:50:51;95877.00;;;0.20
14023;BMP180;7086;48.116;11.580;2024-01-10T01:53:20;95904.00;;;0.20
14023;BMP180;7086;48.116;11.580;2024-01-10T01:55:48;95780.00;;;0.20
14023;BMP180;7086;48.116;11.580;2024-01-10T01:58:17;95905.00;;;0.20
14023;BMP180;7086;48.116;11.580;2024-01-10T02:00:46;95895.00;;;0.20
14023;BMP180;7086;48.116;11.580;2024-01-10T02:03:13;95868.00;;;0.20
14023;BMP180;7086;48.116;11.580;2024-01-10T02:05:41;95906.00;;;0.20
14023;BMP180;7086;48.116;11.580;2024-01-10T02:08:09;95880.00;;;0.20
14023;BMP180;7086;48.116;11.580;2024-01-10T02:10:36;95901.00;;;0.20
14023;BMP180;7086;48.116;11.580;2024-01-10T02:13:05;95902.00;;;0.20
14023;BMP180;7086;48.116;11.580;2024-01-10T02:15:37;95896.00;;;0.20
14023;BMP180;7086;48.116;11.580;2024-01-10T02:18:05;95890.00;;;0.20
14023;BMP180;7086;48.116;11.580;2024-01-10T02:20:33;95901.00;;;0.20
14023;BMP180;7086;48.116;11.580;2024-01-10T02:23:00;95905.00;;;0.30
14023;BMP180;7086;48.116;11.580;2024-01-10T02:25:29;95885.00;;;0.20
14023;BMP180;7086;48.116;11.580;2024-01-10T02:27:56;95901.00;;;0.30
14023;BMP180;7086;48.116;11.580;2024-01-10T02:30:24;95901.00;;;0.30
14023;BMP180;7086;48.116;11.580;2024-01-10T02:32:52;95906.00;;;0.30
14023;BMP180;7086;48.116;11.580;2024-01-10T02:35:19;95868.00;;;0.30
14023;BMP180;7086;48.116;11.580;2024-01-10T02:37:46;95915.00;;;0.30
14023;BMP180;7086;48.116;11.580;2024-01-10T02:40:16;95909.00;;;0.30
14023;BMP180;7086;48.116;11.580;2024-01-10T02:42:45;95922.00;;;0.30
14023;BMP180;7086;48.116;11.580;2024-01-10T02:45:12;95860.00;;;0.30
14023;BMP180;7086;48.116;11.580;2024-01-10T02:47:40;95909.00;;;0.30
14023;BMP180;7086;48.116;11.580;2024-01-10T02:50:08;95900.00;;;0.30
14023;BMP180;7086;48.116;11.580;2024-01-10T02:52:36;95907.00;;;0.30
14023;BMP180;7086;48.116;11.580;2024-01-10T02:55:04;95890.00;;;0.30
14023;BMP180;7086;48.116;11.580;2024-01-10T02:57:32;95904.00;;;0.30
14023;BMP180;7086;48.116;11.580;2024-01-10T03:00:01;95855.00;;;0.30
14023;BMP180;7086;48.116;11.580;2024-01-10T03:02:30;95903.00;;;0.30
14023;BMP180;7086;48.116;11.580;2024-01-10T03:04:58;95850.00;;;0.30
14023;BMP180;7086;48.116;11.580;2024-01-10T03:07:25;95881.00;;;0.30
14023;BMP180;7086;48.116;11.580;2024-01-10T03:09:53;95913.00;;;0.30
14023;BMP180;7086;48.116;11.580;2024-01-10T03:12:23;95894.00;;;0.20
14023;BMP180;7086;48.116;11.580;2024-01-10T03:14:50;95895.00;;;0.30
14023;BMP180;7086;48.116;11.580;2024-01-10T03:17:19;95888.00;;;0.30
14023;BMP180;7086;48.116;11.580;2024-01-10T03:19:48;95895.00;;;0.30
14023;BMP180;7086;48.116;11.580;2024-01-10T03:22:15;95888.00;;;0.20
14023;BMP180;7086;48.116;11.580;2024-01-10T03:24:43;95848.00;;;0.20
14023;BMP180;7086;48.116;11.580;2024-01-10T03:27:10;95752.00;;;0.20
14023;BMP180;7086;48.116;11.580;2024-01-10T03:29:37;95848.00;;;0.20
14023;BMP180;7086;48.116;11.580;2024-01-10T03:32:05;95839.00;;;0.20
14023;BMP180;7086;48.116;11.580;2024-01-10T03:34:34;95807.00;;;0.20
14023;BMP180;7086;48.116;11.580;2024-01-10T03:37:02;95833.00;;;0.20
14023;BMP180;7086;48.116;11.580;2024-01-10T03:39:30;95813.00;;;0.10
14023;BMP180;7086;48.116;11.580;2024-01-10T03:41:57;95882.00;;;0.10
14023;BMP180;7086;48.116;11.580;2024-01-10T03:44:27;95878.00;;;0.00
14023;BMP180;7086;48.116;11.580;2024-01-10T03:46:54;95836.00;;;-0.10
14023;BMP180;7086;48.116;11.580;2024-01-10T03:49:22;95842.00;;;-0.10
14023;BMP180;7086;48.116;11.580;2024-01-10T03:51:50;95895.00;;;-0.20
14023;BMP180;7086;48.116;11.580;2024-01-10T03:54:18;95850.00;;;-0.20
14023;BMP180;7086;48.116;11.580;2024-01-10T03:56:46;95868.00;;;-0.20
14023;BMP180;7086;48.116;11.580;2024-01-10T03:59:13;95888.00;;;-0.20
14023;BMP180;7086;48.116;11.580;2024-01-10T04:01:41;95900.00;;;-0.20
14023;BMP180;7086;48.116;11.580;2024-01-10T04:04:09;95873.00;;;-0.20
14023;BMP180;7086;48.116;11.580;2024-01-10T04:06:36;95907.00;;;-0.20
14023;BMP180;7086;48.116;11.580;2024-01-10T04:09:05;95846.00;;;-0.20
14023;BMP180;7086;48.116;11.580;2024-01-10T04:11:36;95841.00;;;-0.30
14023;BMP180;7086;48.116;11.580;2024-01-10T04:14:03;95862.00;;;-0.20
14023;BMP180;7086;48.116;11.580;2024-01-10T04:16:31;95851.00;;;-0.20
14023;BMP180;7086;48.116;11.580;2024-01-10T04:18:59;95868.00;;;-0.20
14023;BMP180;7086;48.116;11.580;2024-01-10T04:21:27;95836.00;;;-0.20
14023;BMP180;7086;48.116;11.580;2024-01-10T04:23:54;95884.00;;;-0.20
14023;BMP180;7086;48.116;11.580;2024-01-10T04:26:23;95836.00;;;-0.10
14023;BMP180;7086;48.116;11.580;2024-01-10T04:28:51;95793.00;;;-0.20
14023;BMP180;7086;48.116;11.580;2024-01-10T04:31:18;95781.00;;;-0.30
14023;BMP180;7086;48.116;11.580;2024-01-10T04:33:46;95863.00;;;-0.10
14023;BMP180;7086;48.116;11.580;2024-01-10T04:36:13;95847.00;;;-0.10
14023;BMP180;7086;48.116;11.580;2024-01-10T04:38:41;95840.00;;;-0.10
14023;BMP180;7086;48.116;11.580;2024-01-10T04:41:08;95783.00;;;-0.10
14023;BMP180;7086;48.116;11.580;2024-01-10T04:43:37;95820.00;;;-0.10
14023;BMP180;7086;48.116;11.580;2024-01-10T04:46:05;95852.00;;;-0.10
14023;BMP180;7086;48.116;11.580;2024-01-10T04:48:32;95864.00;;;-0.10
14023;BMP180;7086;48.116;11.580;2024-01-10T04:51:00;95857.00;;;-0.10
14023;BMP180;7086;48.116;11.580;2024-01-10T04:53:27;95710.00;;;-0.10
14023;BMP180;7086;48.116;11.580;2024-01-10T04:55:55;95890.00;;;-0.10
14023;BMP180;7086;48.116;11.580;2024-01-10T04:58:23;95863.00;;;-0.20
14023;BMP180;7086;48.116;11.580;2024-01-10T05:00:52;95844.00;;;-0.20
14023;BMP180;7086;48.116;11.580;2024-01-10T05:03:19;95874.00;;;-0.20
14023;BMP180;7086;48.116;11.580;2024-01-10T05:05:47;95832.00;;;-0.20
14023;BMP180;7086;48.116;11.580;2024-01-10T05:08:14;95838.00;;;-0.30
14023;BMP180;7086;48.116;11.580;2024-01-10T05:10:41;95904.00;;;-0.40
14023;BMP180;7086;48.116;11.580;2024-01-10T05:13:08;95901.00;;;-0.30
14023;BMP180;7086;48.116;11.580;2024-01-10T05:15:36;95784.00;;;-0.30
14023;BMP180;7086;48.116;11.580;2024-01-10T05:18:05;95858.00;;;-0.30
14023;BMP180;7086;48.116;11.580;2024-01-10T05:20:33;95833.00;;;-0.30
14023;BMP180;7086;48.116;11.580;2024-01-10T05:23:00;95844.00;;;-0.30
14023;BMP180;7086;48.116;11.580;2024-01-10T05:25:28;95875.00;;;-0.30
14023;BMP180;7086;48.116;11.580;2024-01-10T05:27:55;95878.00;;;-0.40
14023;BMP180;7086;48.116;11.580;2024-01-10T05:30:25;95834.00;;;-0.40
14023;BMP180;7086;48.116;11.580;2024-01-10T05:32:53;95858.00;;;-0.50
14023;BMP180;7086;48.116;11.580;2024-01-10T05:35:21;95873.00;;;-0.50
14023;BMP180;7086;48.116;11.580;2024-01-10T05:37:49;95818.00;;;-0.50
14023;BMP180;7086;48.116;11.580;2024-01-10T05:40:17;95852.00;;;-0.50
14023;BMP180;7086;48.116;11.580;2024-01-10T05:42:44;95883.00;;;-0.50
14023;BMP180;7086;48.116;11.580;2024-01-10T05:45:13;95817.00;;;-0.50
14023;BMP180;7086;48.116;11.580;2024-01-10T05:47:43;95853.00;;;-0.50
14023;BMP180;7086;48.116;11.580;2024-01-10T05:50:11;95888.00;;;-0.40
14023;BMP180;7086;48.116;11.580;2024-01-10T05:52:40;95876.00;;;-0.40
14023;BMP180;7086;48.116;11.580;2024-01-10T05:55:09;95845.00;;;-0.40
14023;BMP180;7086;48.116;11.580;2024-01-10T05:57:37;95897.00;;;-0.30
14023;BMP180;7086;48.116;11.580;2024-01-10T06:00:06;95904.00;;;-0.30
14023;BMP180;7086;48.116;11.580;2024-01-10T06:02:36;95900.00;;;-0.20
14023;BMP180;7086;48.116;11.580;2024-01-10T06:05:06;95891.00;;;-0.20
14023;BMP180;7086;48.116;11.580;2024-01-10T06:07:35;95867.00;;;-0.30
14023;BMP180;7086;48.116;11.580;2024-01-10T06:10:06;95905.00;;;-0.30
14023;BMP180;7086;48.116;11.580;2024-01-10T06:12:34;95849.00;;;-0.30
14023;BMP180;7086;48.116;11.580;2024-01-10T06:15:02;95887.00;;;-0.30
14023;BMP180;7086;48.116;11.580;2024-01-10T06:17:31;95902.00;;;-0.30
14023;BMP180;7086;48.116;11.580;2024-01-10T06:19:59;95928.00;;;-0.50
14023;BMP180;7086;48.116;11.580;2024-01-10T06:22:27;95929.00;;;-0.50
14023;BMP180;7086;48.116;11.580;2024-01-10T06:24:54;95923.00;;;-0.30
14023;BMP180;7086;48.116;11.580;2024-01-10T06:27:24;95912.00;;;-0.30
14023;BMP180;7086;48.116;11.580;2024-01-10T06:29:52;95879.00;;;-0.30
14023;BMP180;7086;48.116;11.580;2024-01-10T06:32:20;95779.00;;;-0.30
14023;BMP180;7086;48.116;11.580;2024-01-10T06:34:48;95915.00;;;-0.30
14023;BMP180;7086;48.116;11.580;2024-01-10T06:37:22;95943.00;;;-0.40
14023;BMP180;7086;48.116;11.580;2024-01-10T06:39:50;95883.00;;;-0.40
14023;BMP180;7086;48.116;11.580;2024-01-10T06:42:19;95922.00;;;-0.40
14023;BMP180;7086;48.116;11.580;2024-01-10T06:44:49;95927.00;;;-0.40
14023;BMP180;7086;48.116;11.580;2024-01-10T06:47:17;95892.00;;;-0.70
14023;BMP180;7086;48.116;11.580;2024-01-10T06:49:46;95915.00;;;-0.50
14023;BMP180;7086;48.116;11.580;2024-01-10T06:52:14;95854.00;;;-0.50
14023;BMP180;7086;48.116;11.580;2024-01-10T06:54:49;95908.00;;;-0.60
14023;BMP180;7086;48.116;11.580;2024-01-10T06:57:31;95888.00;;;-0.60
14023;BMP180;7086;48.116;11.580;2024-01-10T07:00:05;95804.00;;;-0.70
14023;BMP180;7086;48.116;11.580;2024-01-10T07:02:39;95925.00;;;-0.70
14023;BMP180;7086;48.116;11.580;2024-01-10T07:05:08;95942.00;;;-0.70
14023;BMP180;7086;48.116;11.580;2024-01-10T07:07:36;95933.00;;;-0.70
14023;BMP180;7086;48.116;11.580;2024-01-10T07:10:06;95901.00;;;-0.80
14023;BMP180;7086;48.116;11.580;2024-01-10T07:12:35;95797.00;;;-0.80
14023;BMP180;7086;48.116;11.580;2024-01-10T07:15:15;95942.00;;;-1.10
14023;BMP180;7086;48.116;11.580;2024-01-10T07:17:44;95918.00;;;-0.80
14023;BMP180;7086;48.116;11.580;2024-01-10T07:20:12;95955.00;;;-0.80
14023;BMP180;7086;48.116;11.580;2024-01-10T07:22:40;95927.00;;;-0.80
14023;BMP180;7086;48.116;11.580;2024-01-10T07:25:10;95942.00;;;-1.30
14023;BMP180;7086;48.116;11.580;2024-01-10T07:27:41;95883.00;;;-0.80
14023;BMP180;7086;48.116;11.580;2024-01-10T07:30:11;95914.00;;;-0.80
14023;BMP180;7086;48.116;11.580;2024-01-10T07:32:40;95947.00;;;-0.80
14023;BMP180;7086;48.116;11.580;2024-01-10T07:35:11;95814.00;;;-0.80
14023;BMP180;7086;48.116;11.580;2024-01-10T07:37:41;95959.00;;;-0.80
14023;BMP180;7086;48.116;11.580;2024-01-10T07:40:09;95948.00;;;-0.80
14023;BMP180;7086;48.116;11.580;2024-01-10T07:42:39;95972.00;;;-1.10
14023;BMP180;7086;48.116;11.580;2024-01-10T07:45:08;95891.00;;;-0.80
14023;BMP180;7086;48.116;11.580;2024-01-10T07:47:38;95937.00;;;-0.80
14023;BMP180;7086;48.116;11.580;2024-01-10T07:50:07;95871.00;;;-0.70
14023;BMP180;7086;48.116;11.580;2024-01-10T07:52:35;95899.00;;;-0.70
14023;BMP180;7086;48.116;11.580;2024-01-10T07:55:04;95918.00;;;-0.70
14023;BMP180;7086;48.116;11.580;2024-01-10T07:57:35;95897.00;;;-0.80
14023;BMP180;7086;48.116;11.580;2024-01-10T08:00:03;95916.00;;;-0.60
14023;BMP180;7086;48.116;11.580;2024-01-10T08:02:31;95990.00;;;-0.60
14023;BMP180;7086;48.116;11.580;2024-01-10T08:05:01;95813.00;;;-0.50
14023;BMP180;7086;48.116;11.580;2024-01-10T08:07:31;95977.00;;;-0.40
14023;BMP180;7086;48.116;11.580;2024-01-10T08:09:59;95963.00;;;-0.40
14023;BMP180;7086;48.116;11.580;2024-01-10T08:12:27;95995.00;;;-0.30
14023;BMP180;7086;48.116;11.580;2024-01-10T08:14:54;95962.00;;;-0.30
14023;BMP180;7086;48.116;11.580;2024-01-10T08:17:22;95945.00;;;-0.20
14023;BMP180;7086;48.116;11.580;2024-01-10T08:19:50;95979.00;;;-0.10
14023;BMP180;7086;48.116;11.580;2024-01-10T08:22:19;95966.00;;;-0.10
14023;BMP180;7086;48.116;11.580;2024-01-10T08:24:48;95958.00;;;0.00
14023;BMP180;7086;48.116;11.580;2024-01-10T08:27:16;95966.00;;;0.10
14023;BMP180;7086;48.116;11.580;2024-01-10T08:29:44;95907.00;;;0.20
14023;BMP180;7086;48.116;11.580;2024-01-10T08:32:12;95988.00;;;0.30
14023;BMP180;7086;48.116;11.580;2024-01-10T08:34:44;95961.00;;;0.40
14023;BMP180;7086;48.116;11.580;2024-01-10T08:37:13;95990.00;;;0.60
14023;BMP180;7086;48.116;11.580;2024-01-10T08:40:12;95957.00;;;0.70
14023;BMP180;7086;48.116;11.580;2024-01-10T08:42:43;95982.00;;;1.00
14023;BMP180;7086;48.116;11.580;2024-01-10T08:45:11;95962.00;;;1.20
14023;BMP180;7086;48.116;11.580;2024-01-10T08:47:41;95961.00;;;1.50
14023;BMP180;7086;48.116;11.580;2024-01-10T08:50:10;95905.00;;;1.90
14023;BMP180;7086;48.116;11.580;2024-01-10T08:52:38;95991.00;;;2.10
14023;BMP180;7086;48.116;11.580;2024-01-10T08:55:07;95927.00;;;2.30
14023;BMP180;7086;48.116;11.580;2024-01-10T08:57:36;95975.00;;;2.60
14023;BMP180;7086;48.116;11.580;2024-01-10T09:00:06;95962.00;;;2.70
14023;BMP180;7086;48.116;11.580;2024-01-10T09:02:36;95904.00;;;2.80
14023;BMP180;7086;48.116;11.580;2024-01-10T09:05:06;95931.00;;;2.80
14023;BMP180;7086;48.116;11.580;2024-01-10T09:07:36;95996.00;;;2.70
14023;BMP180;7086;48.116;11.580;2024-01-10T09:10:06;95985.00;;;2.70
14023;BMP180;7086;48.116;11.580;2024-01-10T09:12:36;95991.00;;;2.60
14023;BMP180;7086;48.116;11.580;2024-01-10T09:15:05;95964.00;;;2.20
14023;BMP180;7086;48.116;11.580;2024-01-10T09:17:36;95902.00;;;2.50
14023;BMP180;7086;48.116;11.580;2024-01-10T09:20:09;95951.00;;;2.40
14023;BMP180;7086;48.116;11.580;2024-01-10T09:22:37;95994.00;;;2.40
14023;BMP180;7086;48.116;11.580;2024-01-10T09:25:11;95986.00;;;2.30
14023;BMP180;7086;48.116;11.580;2024-01-10T09:27:41;95972.00;;;2.30
14023;BMP180;7086;48.116;11.580;2024-01-10T09:30:11;96005.00;;;2.30
14023;BMP180;7086;48.116;11.580;2024-01-10T09:32:40;95989.00;;;2.20
14023;BMP180;7086;48.116;11.580;2024-01-10T09:35:08;95915.00;;;1.90
14023;BMP180;7086;48.116;11.580;2024-01-10T09:37:36;96022.00;;;2.20
14023;BMP180;7086;48.116;11.580;2024-01-10T09:40:07;95998.00;;;2.20
14023;BMP180;7086;48.116;11.580;2024-01-10T09:42:41;96031.00;;;2.20
14023;BMP180;7086;48.116;11.580;2024-01-10T09:45:11;95970.00;;;2.10
14023;BMP180;7086;48.116;11.580;2024-01-10T09:47:42;96001.00;;;2.10
14023;BMP180;7086;48.116;11.580;2024-01-10T09:50:25;95966.00;;;2.10
14023;BMP180;7086;48.116;11.580;2024-01-10T09:53:01;95952.00;;;2.10
14023;BMP180;7086;48.116;11.580;2024-01-10T09:55:42;96006.00;;;2.00
14023;BMP180;7086;48.116;11.580;2024-01-10T09:58:13;95972.00;;;2.00
14023;BMP180;7086;48.116;11.580;2024-01-10T10:00:41;95995.00;;;2.00
14023;BMP180;7086;48.116;11.580;2024-01-10T10:03:10;96011.00;;;2.00
14023;BMP180;7086;48.116;11.580;2024-01-10T10:05:40;95961.00;;;1.80
14023;BMP180;7086;48.116;11.580;2024-01-10T10:08:10;95995.00;;;1.70
14023;BMP180;7086;48.116;11.580;2024-01-10T10:10:39;96000.00;;;1.60
14023;BMP180;7086;48.116;11.580;2024-01-10T10:13:24;95964.00;;;1.60
14023;BMP180;7086;48.116;11.580;2024-01-10T10:16:00;96026.00;;;1.60
14023;BMP180;7086;48.116;11.580;2024-01-10T10:18:29;96015.00;;;1.60
14023;BMP180;7086;48.116;11.580;2024-01-10T10:21:09;95965.00;;;1.60
14023;BMP180;7086;48.116;11.580;2024-01-10T10:23:38;95966.00;;;1.70
14023;BMP180;7086;48.116;11.580;2024-01-10T10:26:15;95966.00;;;1.90
14023;BMP180;7086;48.116;11.580;2024-01-10T10:28:51;95965.00;;;1.60
14023;BMP180;7086;48.116;11.580;2024-01-10T10:31:20;95936.00;;;2.60
14023;BMP180;7086;48.116;11.580;2024-01-10T10:33:49;95877.00;;;2.60
14023;BMP180;7086;48.116;11.580;2024-01-10T10:36:21;96025.00;;;3.40
14023;BMP180;7086;48.116;11.580;2024-01-10T10:38:49;95966.00;;;3.80
14023;BMP180;7086;48.116;11.580;2024-01-10T10:41:20;96028.00;;;4.30
14023;BMP180;7086;48.116;11.580;2024-01-10T10:43:52;95959.00;;;4.60
14023;BMP180;7086;48.116;11.580;2024-01-10T10:46:27;96037.00;;;4.90
14023;BMP180;7086;48.116;11.580;2024-01-10T10:48:59;96014.00;;;5.10
14023;BMP180;7086;48.116;11.580;2024-01-10T10:51:33;95948.00;;;5.40
14023;BMP180;7086;48.116;11.580;2024-01-10T10:54:04;95947.00;;;5.60
14023;BMP180;7086;48.116;11.580;2024-01-10T10:56:33;95869.00;;;5.80
14023;BMP180;7086;48.116;11.580;2024-01-10T10:59:09;95997.00;;;5.90
14023;BMP180;7086;48.116;11.580;2024-01-10T11:01:39;95997.00;;;6.00
14023;BMP180;7086;48.116;11.580;2024-01-10T11:04:08;96005.00;;;6.10
14023;BMP180;7086;48.116;11.580;2024-01-10T11:06:36;95982.00;;;6.10
14023;BMP180;7086;48.116;11.580;2024-01-10T11:09:10;96005.00;;;6.20
14023;BMP180;7086;48.116;11.580;2024-01-10T11:12:00;96007.00;;;6.10
14023;BMP180;7086;48.116;11.580;2024-01-10T11:14:52;95977.00;;;6.20
14023;BMP180;7086;48.116;11.580;2024-01-10T11:18:03;95987.00;;;6.00
14023;BMP180;7086;48.116;11.580;2024-01-10T11:20:59;95973.00;;;5.80
14023;BMP180;7086;48.116;11.580;2024-01-10T11:23:40;95984.00;;;5.60
14023;BMP180;7086;48.116;11.580;2024-01-10T11:26:10;96007.00;;;5.40
14023;BMP180;7086;48.116;11.580;2024-01-10T11:28:41;96008.00;;;5.40
14023;BMP180;7086;48.116;11.580;2024-01-10T11:31:14;95959.00;;;5.10
14023;BMP180;7086;48.116;11.580;2024-01-10T11:33:45;95943.00;;;5.10
14023;BMP180;7086;48.116;11.580;2024-01-10T11:36:17;95976.00;;;5.00
14023;BMP180;7086;48.116;11.580;2024-01-10T11:38:54;96014.00;;;4.80
14023;BMP180;7086;48.116;11.580;2024-01-10T11:41:26;95876.00;;;4.70
14023;BMP180;7086;48.116;11.580;2024-01-10T11:44:28;96021.00;;;4.50
14023;BMP180;7086;48.116;11.580;2024-01-10T11:47:00;95923.00;;;4.50
14023;BMP180;7086;48.116;11.580;2024-01-10T11:49:29;95884.00;;;4.50
14023;BMP180;7086;48.116;11.580;2024-01-10T11:51:58;95973.00;;;4.50
14023;BMP180;7086;48.116;11.580;2024-01-10T11:54:41;95947.00;;;4.60
14023;BMP180;7086;48.116;11.580;2024-01-10T11:57:12;95916.00;;;4.80
14023;BMP180;7086;48.116;11.580;2024-01-10T11:59:43;95987.00;;;4.90
14023;BMP180;7086;48.116;11.580;2024-01-10T12:02:15;95991.00;;;5.00
14023;BMP180;7086;48.116;11.580;2024-01-10T12:04:46;95993.00;;;5.10
14023;BMP180;7086;48.116;11.580;2024-01-10T12:07:19;95989.00;;;5.10
14023;BMP180;7086;48.116;11.580;2024-01-10T12:09:48;95946.00;;;5.00
14023;BMP180;7086;48.116;11.580;2024-01-10T12:12:18;96003.00;;;5.00
14023;BMP180;7086;48.116;11.580;2024-01-10T12:14:47;95995.00;;;4.90
14023;BMP180;7086;48.116;11.580;2024-01-10T12:17:30;95971.00;;;4.80
14023;BMP180;7086;48.116;11.580;2024-01-10T12:20:00;95903.00;;;4.40
14023;BMP180;7086;48.116;11.580;2024-01-10T12:22:43;95943.00;;;4.50
14023;BMP180;7086;48.116;11.580;2024-01-10T12:25:11;96015.00;;;4.30
14023;BMP180;7086;48.116;11.580;2024-01-10T12:27:41;96030.00;;;4.20
14023;BMP180;7086;48.116;11.580;2024-01-10T12:30:11;95995.00;;;4.10
14023;BMP180;7086;48.116;11.580;2024-01-10T12:32:51;96008.00;;;3.40
14023;BMP180;7086;48.116;11.580;2024-01-10T12:35:19;96002.00;;;3.80
14023;BMP180;7086;48.116;11.580;2024-01-10T12:37:54;95986.00;;;3.60
14023;BMP180;7086;48.116;11.580;2024-01-10T12:40:23;95972.00;;;3.50
14023;BMP180;7086;48.116;11.580;2024-01-10T12:43:02;95957.00;;;3.10
14023;BMP180;7086;48.116;11.580;2024-01-10T12:45:32;95916.00;;;3.30
14023;BMP180;7086;48.116;11.580;2024-01-10T12:48:01;95979.00;;;3.30
14023;BMP180;7086;48.116;11.580;2024-01-10T12:50:29;95999.00;;;3.30
14023;BMP180;7086;48.116;11.580;2024-01-10T12:53:14;95988.00;;;3.30
14023;BMP180;7086;48.116;11.580;2024-01-10T12:55:45;95949.00;;;3.30
14023;BMP180;7086;48.116;11.580;2024-01-10T12:58:14;95962.00;;;3.20
14023;BMP180;7086;48.116;11.580;2024-01-10T13:00:55;95846.00;;;3.30
14023;BMP180;7086;48.116;11.580;2024-01-10T13:03:26;95985.00;;;3.20
14023;BMP180;7086;48.116;11.580;2024-01-10T13:05:54;96010.00;;;3.30
14023;BMP180;7086;48.116;11.580;2024-01-10T13:08:21;95960.00;;;3.20
14023;BMP180;7086;48.116;11.580;2024-01-10T13:10:50;95932.00;;;3.20
14023;BMP180;7086;48.116;11.580;2024-01-10T13:13:20;95965.00;;;3.20
14023;BMP180;7086;48.116;11.580;2024-01-10T13:15:49;96002.00;;;3.00
14023;BMP180;7086;48.116;11.580;2024-01-10T13:18:18;95973.00;;;3.20
14023;BMP180;7086;48.116;11.580;2024-01-10T13:20:49;95941.00;;;3.20
14023;BMP180;7086;48.116;11.580;2024-01-10T13:23:18;95854.00;;;3.30
14023;BMP180;7086;48.116;11.580;2024-01-10T13:25:48;95842.00;;;3.10
14023;BMP180;7086;48.116;11.580;2024-01-10T13:28:16;95976.00;;;3.30
14023;BMP180;7086;48.116;11.580;2024-01-10T13:30:44;95994.00;;;3.30
14023;BMP180;7086;48.116;11.580;2024-01-10T13:33:12;96014.00;;;3.30
14023;BMP180;7086;48.116;11.580;2024-01-10T13:42:40;95955.00;;;3.10
14023;BMP180;7086;48.116;11.580;2024-01-10T13:45:21;95963.00;;;3.00
14023;BMP180;7086;48.116;11.580;2024-01-10T13:47:51;95863.00;;;3.00
14023;BMP180;7086;48.116;11.580;2024-01-10T13:50:33;95976.00;;;2.90
14023;BMP180;7086;48.116;11.580;2024-01-10T13:53:01;95982.00;;;2.80
14023;BMP180;7086;48.116;11.580;2024-01-10T13:55:31;96020.00;;;2.80
14023;BMP180;7086;48.116;11.580;2024-01-10T13:58:04;95873.00;;;2.20
14023;BMP180;7086;48.116;11.580;2024-01-10T14:00:33;95916.00;;;2.70
14023;BMP180;7086;48.116;11.580;2024-01-10T14:03:02;96005.00;;;2.70
14023;BMP180;7086;48.116;11.580;2024-01-10T14:05:31;96020.00;;;2.50
14023;BMP180;7086;48.116;11.580;2024-01-10T14:08:15;95999.00;;;2.60
14023;BMP180;7086;48.116;11.580;2024-01-10T14:10:47;96001.00;;;2.50
14023;BMP180;7086;48.116;11.580;2024-01-10T14:13:18;96025.00;;;2.50
14023;BMP180;7086;48.116;11.580;2024-01-10T14:15:46;96004.00;;;2.50
14023;BMP180;7086;48.116;11.580;2024-01-10T14:18:13;95952.00;;;2.50
14023;BMP180;7086;48.116;11.580;2024-01-10T14:20:41;95877.00;;;2.00
14023;BMP180;7086;48.116;11.580;2024-01-10T14:23:09;95954.00;;;2.40
14023;BMP180;7086;48.116;11.580;2024-01-10T14:25:37;96003.00;;;2.40
14023;BMP180;7086;48.116;11.580;2024-01-10T14:28:05;96010.00;;;2.40
14023;BMP180;7086;48.116;11.580;2024-01-10T14:30:34;95985.00;;;2.30
14023;BMP180;7086;48.116;11.580;2024-01-10T14:33:03;96020.00;;;2.30
14023;BMP180;7086;48.116;11.580;2024-01-10T14:35:31;95955.00;;;2.30
14023;BMP180;7086;48.116;11.580;2024-01-10T14:37:59;96035.00;;;2.20
14023;BMP180;7086;48.116;11.580;2024-01-10T14:40:27;96025.00;;;2.20